Akron, Alabama
Current Conditions -  °F | °C
As of 4:53 PM on Monday 20 Oct 2014 (Local Time) from KTCL Reporting Station
Clear Clear  
Wind Chill: 73°   Ceiling: Unl
Heat Index: 73°   Visibility: 10mi
Dew Point: 47°   Wind: 3mph
Humidity: 39%   Direction: 290°WNW
Pressure: 30"   Gusts: NA
Location:  32.88°N, 87.74°W
Report Text: KTCL 202153Z 29003KT 10SM CLR 23/08 A3000 RMK AO2 SLP157 T02280083
Loading
Personal Weather Stations






























Interactive Weather Map
Tropical Storm Tracking
New forecast layout! Learn more

10-Day Weather Forecast

Advertisements
Track Severe Weather on mobile